createdAt,value
2017-07-23T00:00:54.862Z,71.30
2017-07-23T00:03:22.460Z,71.60
2017-07-23T00:05:50.024Z,71.80
2017-07-23T00:08:18.057Z,72.00
2017-07-23T00:10:45.653Z,71.90
2017-07-23T00:13:13.239Z,71.70
2017-07-23T00:15:40.852Z,71.50
2017-07-23T00:18:09.175Z,71.60
2017-07-23T00:20:37.185Z,71.20
2017-07-23T00:23:04.749Z,71.30
2017-07-23T00:25:32.321Z,71.20
2017-07-23T00:28:00.709Z,71.40
2017-07-23T00:30:28.263Z,70.80
2017-07-23T00:32:56.917Z,70.80
2017-07-23T00:35:24.514Z,70.70
2017-07-23T00:37:52.069Z,71.00
2017-07-23T00:40:20.453Z,70.60
2017-07-23T00:42:48.008Z,70.50
2017-07-23T00:45:16.688Z,70.70
2017-07-23T00:47:45.007Z,70.40
2017-07-23T00:50:12.546Z,70.40
2017-07-23T00:52:40.147Z,70.00
2017-07-23T00:55:07.696Z,70.00
2017-07-23T00:57:35.585Z,69.70
2017-07-23T01:00:03.139Z,70.30
2017-07-23T01:02:31.595Z,71.00
2017-07-23T01:04:59.203Z,70.40
2017-07-23T01:07:26.776Z,70.50
2017-07-23T01:09:54.734Z,70.30
2017-07-23T01:12:23.131Z,70.50
2017-07-23T01:14:50.685Z,70.50
2017-07-23T01:17:19.072Z,71.10
2017-07-23T01:19:46.637Z,71.00
2017-07-23T01:22:14.672Z,71.30
2017-07-23T01:24:42.229Z,71.70
2017-07-23T01:27:09.800Z,71.70
2017-07-23T01:29:37.383Z,71.70
2017-07-23T01:32:04.948Z,71.70
2017-07-23T01:34:32.970Z,72.00
2017-07-23T01:37:00.540Z,72.30
2017-07-23T01:39:28.093Z,72.30
2017-07-23T01:41:55.696Z,72.20
2017-07-23T01:44:23.253Z,72.10
2017-07-23T01:46:51.304Z,72.10
2017-07-23T01:49:19.604Z,71.90
2017-07-23T01:51:47.170Z,72.00
2017-07-23T01:54:14.772Z,72.40
2017-07-23T01:56:42.515Z,72.50
2017-07-23T01:59:10.421Z,72.40
2017-07-23T02:01:37.986Z,72.50
2017-07-23T02:04:05.594Z,72.60
2017-07-23T02:06:33.228Z,72.80
2017-07-23T02:09:01.642Z,72.80
2017-07-23T02:11:29.553Z,72.80
2017-07-23T02:13:57.142Z,72.80
2017-07-23T02:16:24.740Z,72.60
2017-07-23T02:18:52.360Z,72.70
2017-07-23T02:21:20.687Z,72.60
2017-07-23T02:23:48.687Z,72.60
2017-07-23T02:26:17.039Z,72.80
2017-07-23T02:28:44.641Z,72.80
2017-07-23T02:31:13.011Z,72.80
2017-07-23T02:33:40.573Z,72.80
2017-07-23T02:36:09.246Z,72.60
2017-07-23T02:38:36.908Z,72.60
2017-07-23T02:41:04.493Z,72.80
2017-07-23T02:43:32.101Z,72.50
2017-07-23T02:45:59.623Z,72.30
2017-07-23T02:48:27.562Z,72.70
2017-07-23T02:50:55.145Z,72.80
2017-07-23T02:53:22.707Z,72.90
2017-07-23T02:55:50.343Z,72.90
2017-07-23T02:58:18.689Z,73.00
2017-07-23T03:00:46.670Z,73.00
2017-07-23T03:03:14.235Z,73.00
2017-07-23T03:05:41.788Z,73.00
2017-07-23T03:08:09.394Z,73.30
2017-07-23T03:10:36.970Z,73.10
2017-07-23T03:13:04.873Z,73.00
2017-07-23T03:15:32.470Z,73.10
2017-07-23T03:18:00.814Z,73.10
2017-07-23T03:20:28.424Z,73.00
2017-07-23T03:22:55.995Z,73.20
2017-07-23T03:25:23.888Z,73.00
2017-07-23T03:27:51.489Z,73.00
2017-07-23T03:30:19.059Z,73.00
2017-07-23T03:32:46.674Z,73.00
2017-07-23T03:35:14.239Z,73.10
2017-07-23T03:37:42.221Z,73.20
2017-07-23T03:40:09.776Z,73.00
2017-07-23T03:42:37.357Z,73.10
2017-07-23T03:45:05.735Z,72.50
2017-07-23T03:47:33.299Z,72.50
2017-07-23T03:50:01.962Z,72.20
2017-07-23T03:52:29.515Z,72.20
2017-07-23T03:54:57.066Z,72.10
2017-07-23T03:57:24.672Z,71.70
2017-07-23T03:59:52.300Z,71.60
2017-07-23T04:02:20.914Z,70.70
2017-07-23T04:04:48.475Z,70.50
2017-07-23T04:07:16.046Z,70.10
2017-07-23T04:09:43.669Z,69.60
2017-07-23T04:12:11.286Z,68.90
2017-07-23T04:14:39.180Z,69.00
2017-07-23T04:17:06.788Z,68.20
2017-07-23T04:19:34.344Z,67.50
2017-07-23T04:22:01.947Z,66.80
2017-07-23T04:24:29.522Z,66.80
2017-07-23T04:26:57.461Z,64.90
2017-07-23T04:29:25.019Z,62.60
2017-07-23T04:31:52.579Z,61.80
2017-07-23T04:34:20.183Z,62.20
2017-07-23T04:36:47.786Z,62.30
2017-07-23T04:39:15.807Z,62.80
2017-07-23T04:41:43.365Z,62.90
2017-07-23T04:44:10.962Z,63.00
2017-07-23T04:46:39.314Z,63.70
2017-07-23T04:49:06.864Z,63.60
2017-07-23T04:51:34.712Z,64.20
2017-07-23T04:54:02.289Z,64.60
2017-07-23T04:56:29.862Z,64.70
2017-07-23T04:58:57.455Z,64.70
2017-07-23T05:01:25.032Z,64.80
2017-07-23T05:03:53.039Z,64.70
2017-07-23T05:06:21.075Z,64.80
2017-07-23T05:08:48.702Z,64.80
2017-07-23T05:11:16.305Z,65.00
2017-07-23T05:13:43.873Z,64.60
2017-07-23T05:16:11.760Z,64.70
2017-07-23T05:18:39.338Z,64.60
2017-07-23T05:21:06.886Z,64.00
2017-07-23T05:23:34.546Z,62.40
2017-07-23T05:26:02.127Z,61.80
2017-07-23T05:28:30.055Z,60.10
2017-07-23T05:30:57.614Z,59.10
2017-07-23T05:33:25.225Z,59.40
2017-07-23T05:35:52.840Z,59.50
2017-07-23T05:38:20.395Z,60.30
2017-07-23T05:40:48.386Z,61.10
2017-07-23T05:43:15.956Z,61.40
2017-07-23T05:45:43.508Z,61.30
2017-07-23T05:48:11.089Z,61.90
2017-07-23T05:50:38.782Z,61.90
2017-07-23T05:53:06.691Z,61.90
2017-07-23T05:55:34.255Z,62.20
2017-07-23T05:58:01.831Z,61.50
2017-07-23T06:00:30.401Z,60.80
2017-07-23T06:02:57.970Z,60.80
2017-07-23T06:05:26.596Z,60.00
2017-07-23T06:07:54.170Z,59.70
2017-07-23T06:10:21.751Z,59.40
2017-07-23T06:12:49.403Z,59.00
2017-07-23T06:15:16.960Z,59.10
2017-07-23T06:17:44.824Z,58.90
2017-07-23T06:20:12.380Z,59.30
2017-07-23T06:22:39.936Z,59.10
2017-07-23T06:25:07.610Z,59.40
2017-07-23T06:27:35.153Z,59.90
2017-07-23T06:30:03.020Z,59.90
2017-07-23T06:32:30.588Z,60.20
2017-07-23T06:34:58.122Z,60.90
2017-07-23T06:37:25.716Z,60.80
2017-07-23T06:39:53.258Z,60.90
2017-07-23T06:42:21.113Z,60.80
2017-07-23T06:44:48.669Z,60.70
2017-07-23T06:47:16.233Z,60.80
2017-07-23T06:49:43.863Z,61.70
2017-07-23T06:52:11.428Z,61.30
2017-07-23T06:54:39.279Z,62.10
2017-07-23T06:57:07.630Z,62.20
2017-07-23T06:59:35.220Z,62.20
2017-07-23T07:02:03.635Z,63.20
2017-07-23T07:04:31.215Z,63.10
2017-07-23T07:06:59.201Z,64.00
2017-07-23T07:09:26.751Z,63.60
2017-07-23T07:11:54.315Z,63.00
2017-07-23T07:14:21.903Z,63.60
2017-07-23T07:16:49.453Z,63.50
2017-07-23T07:19:18.133Z,63.50
2017-07-23T07:21:45.717Z,63.40
2017-07-23T07:24:13.275Z,63.70
2017-07-23T07:26:41.658Z,62.90
2017-07-23T07:29:09.221Z,62.90
2017-07-23T07:31:37.075Z,63.10
2017-07-23T07:34:05.392Z,64.10
2017-07-23T07:36:33.029Z,64.00
2017-07-23T07:39:00.685Z,63.60
2017-07-23T07:41:28.254Z,63.80
2017-07-23T07:43:56.123Z,64.10
2017-07-23T07:46:23.667Z,64.20
2017-07-23T07:48:52.008Z,65.10
2017-07-23T07:51:19.616Z,65.00
2017-07-23T07:53:47.169Z,65.30
2017-07-23T07:56:15.054Z,65.00
2017-07-23T07:58:42.616Z,65.40
2017-07-23T08:01:10.193Z,64.50
2017-07-23T08:03:37.812Z,64.40
2017-07-23T08:06:05.371Z,64.20
2017-07-23T08:08:33.223Z,64.50
2017-07-23T08:11:00.799Z,64.50
2017-07-23T08:13:29.287Z,64.00
2017-07-23T08:15:56.890Z,64.30
2017-07-23T08:18:24.439Z,64.30
2017-07-23T08:20:52.350Z,63.50
2017-07-23T08:23:19.904Z,63.30
2017-07-23T08:25:47.475Z,63.20
2017-07-23T08:28:15.854Z,63.30
2017-07-23T08:30:43.437Z,62.70
2017-07-23T08:33:11.471Z,62.70
2017-07-23T08:35:39.032Z,62.30
2017-07-23T08:38:06.595Z,61.80
2017-07-23T08:40:34.200Z,61.90
2017-07-23T08:43:01.767Z,62.00
2017-07-23T08:45:29.777Z,61.70
2017-07-23T08:47:57.373Z,60.70
2017-07-23T08:50:24.986Z,60.50
2017-07-23T08:52:52.587Z,60.50
2017-07-23T08:55:20.169Z,60.30
2017-07-23T08:57:48.202Z,60.20
2017-07-23T09:00:15.760Z,59.90
2017-07-23T09:02:43.313Z,60.00
2017-07-23T09:05:11.250Z,60.00
2017-07-23T09:07:38.859Z,59.90
2017-07-23T09:10:06.815Z,60.00
2017-07-23T09:12:34.382Z,59.80
2017-07-23T09:15:01.939Z,59.20
2017-07-23T09:17:30.344Z,57.80
2017-07-23T09:19:57.934Z,58.40
2017-07-23T09:22:25.931Z,57.90
2017-07-23T09:24:53.725Z,57.60
2017-07-23T09:27:21.295Z,56.70
2017-07-23T09:29:48.897Z,54.80
2017-07-23T09:32:16.467Z,55.00
2017-07-23T09:34:44.434Z,54.10
2017-07-23T09:37:12.049Z,53.80
2017-07-23T09:39:39.624Z,52.10
2017-07-23T09:42:07.252Z,52.40
2017-07-23T09:44:35.049Z,51.30
2017-07-23T09:47:03.005Z,50.80
2017-07-23T09:49:30.576Z,50.50
2017-07-23T09:51:58.172Z,50.00
2017-07-23T09:54:25.820Z,47.30
2017-07-23T09:56:53.384Z,46.80
2017-07-23T09:59:21.266Z,46.90
2017-07-23T10:01:48.842Z,46.50
2017-07-23T10:04:16.433Z,48.30
2017-07-23T10:06:44.189Z,48.90
2017-07-23T10:09:11.762Z,50.20
2017-07-23T10:11:40.655Z,50.30
2017-07-23T10:14:08.225Z,51.30
2017-07-23T10:16:35.859Z,51.50
2017-07-23T10:19:03.588Z,51.30
2017-07-23T10:21:31.160Z,51.30
2017-07-23T10:23:59.116Z,51.30
2017-07-23T10:26:26.771Z,51.40
2017-07-23T10:28:54.366Z,51.40
2017-07-23T10:31:21.974Z,51.50
2017-07-23T10:33:49.536Z,51.50
2017-07-23T10:36:17.424Z,51.50
2017-07-23T10:38:45.000Z,50.20
2017-07-23T10:41:12.552Z,51.30
2017-07-23T10:43:40.133Z,50.10
2017-07-23T10:46:07.704Z,49.80
2017-07-23T10:48:35.582Z,49.60
2017-07-23T10:51:03.220Z,49.00
2017-07-23T10:53:31.573Z,49.20
2017-07-23T10:55:59.205Z,49.20
2017-07-23T10:58:26.769Z,46.90
2017-07-23T11:00:54.670Z,47.50
2017-07-23T11:03:22.706Z,46.10
2017-07-23T11:05:50.260Z,45.00
2017-07-23T11:08:17.922Z,44.90
2017-07-23T11:10:45.491Z,44.00
2017-07-23T11:13:13.383Z,44.20
2017-07-23T11:15:40.943Z,44.40
2017-07-23T11:18:08.511Z,43.60
2017-07-23T11:20:36.156Z,43.80
2017-07-23T11:23:03.788Z,43.00
2017-07-23T11:25:31.687Z,42.30
2017-07-23T11:27:59.257Z,43.70
2017-07-23T11:30:26.973Z,44.00
2017-07-23T11:32:54.622Z,42.40
2017-07-23T11:35:22.216Z,43.00
2017-07-23T11:37:57.989Z,42.20
2017-07-23T11:40:25.567Z,42.90
2017-07-23T11:42:53.142Z,40.50
2017-07-23T11:45:20.728Z,42.20
2017-07-23T11:47:48.306Z,41.90
2017-07-23T11:50:16.180Z,40.10
2017-07-23T11:52:43.770Z,41.10
2017-07-23T11:55:12.102Z,39.90
2017-07-23T11:57:39.770Z,38.90
2017-07-23T12:00:07.347Z,39.80
2017-07-23T12:02:35.251Z,40.00
2017-07-23T12:05:02.878Z,39.20
2017-07-23T12:07:30.473Z,39.20
2017-07-23T12:09:58.095Z,39.30
2017-07-23T12:12:25.679Z,39.40
2017-07-23T12:14:54.576Z,39.60
2017-07-23T12:17:22.987Z,39.60
2017-07-23T12:19:50.544Z,39.50
2017-07-23T12:22:18.174Z,37.80
2017-07-23T12:24:45.792Z,38.10
2017-07-23T12:27:13.729Z,38.30
2017-07-23T12:29:41.320Z,36.20
2017-07-23T12:32:08.981Z,38.00
2017-07-23T12:34:36.580Z,37.70
2017-07-23T12:37:04.262Z,37.90
2017-07-23T12:39:32.192Z,37.50
2017-07-23T12:41:59.757Z,37.80
2017-07-23T12:44:27.366Z,37.30
2017-07-23T12:46:55.003Z,36.00
2017-07-23T12:49:22.578Z,36.00
2017-07-23T12:51:50.529Z,36.70
2017-07-23T12:54:18.110Z,38.60
2017-07-23T12:56:45.794Z,39.00
2017-07-23T12:59:13.421Z,36.70
2017-07-23T13:01:42.150Z,38.60
2017-07-23T13:04:12.104Z,38.40
2017-07-23T13:06:39.838Z,38.40
2017-07-23T13:09:14.082Z,38.20
2017-07-23T13:11:41.641Z,38.70
2017-07-23T13:14:09.228Z,39.20
2017-07-23T13:16:36.894Z,39.80
2017-07-23T13:19:04.453Z,39.40
2017-07-23T13:21:32.492Z,39.80
2017-07-23T13:24:00.838Z,40.10
2017-07-23T13:26:28.408Z,40.40
2017-07-23T13:28:56.152Z,40.00
2017-07-23T13:31:23.704Z,39.80
2017-07-23T13:33:51.983Z,40.00
2017-07-23T13:36:19.601Z,40.50
2017-07-23T13:38:47.236Z,40.00
2017-07-23T13:41:14.824Z,40.90
2017-07-23T13:43:43.139Z,40.60
2017-07-23T13:46:11.031Z,40.50
2017-07-23T13:48:39.585Z,39.60
2017-07-23T13:51:07.136Z,38.40
2017-07-23T13:53:34.751Z,38.50
2017-07-23T13:56:02.715Z,39.20
2017-07-23T13:58:30.646Z,38.40
2017-07-23T14:00:59.113Z,38.40
2017-07-23T14:03:26.940Z,39.30
2017-07-23T14:05:54.578Z,38.20
2017-07-23T14:08:22.148Z,39.10
2017-07-23T14:10:50.304Z,38.80
2017-07-23T14:13:17.883Z,38.90
2017-07-23T14:15:45.488Z,38.20
2017-07-23T14:18:13.114Z,38.80
2017-07-23T14:20:40.679Z,39.30
2017-07-23T14:23:08.663Z,39.30
2017-07-23T14:25:36.265Z,39.20
2017-07-23T14:28:03.833Z,40.20
2017-07-23T14:30:31.686Z,38.70
2017-07-23T14:33:00.034Z,39.80
2017-07-23T14:35:28.686Z,39.70
2017-07-23T14:37:56.282Z,39.70
2017-07-23T14:40:23.897Z,38.00
2017-07-23T14:42:51.559Z,38.10
2017-07-23T14:45:19.141Z,38.00
2017-07-23T14:47:47.857Z,38.00
2017-07-23T14:50:15.457Z,38.00
2017-07-23T14:52:43.078Z,38.10
2017-07-23T14:55:10.738Z,38.10
2017-07-23T14:57:38.336Z,37.30
2017-07-23T15:00:06.258Z,35.00
2017-07-23T15:02:33.851Z,36.20
2017-07-23T15:05:02.779Z,36.10
2017-07-23T15:07:30.455Z,35.80
2017-07-23T15:09:58.056Z,36.60
2017-07-23T15:12:26.320Z,37.70
2017-07-23T15:14:53.874Z,36.50
2017-07-23T15:17:21.445Z,36.80
2017-07-23T15:19:49.095Z,37.50
2017-07-23T15:22:16.698Z,36.70
2017-07-23T15:24:44.756Z,35.50
2017-07-23T15:27:12.316Z,35.90
2017-07-23T15:29:39.908Z,36.50
2017-07-23T15:32:07.537Z,36.50
2017-07-23T15:34:35.136Z,36.00
2017-07-23T15:37:03.097Z,35.80
2017-07-23T15:39:30.722Z,37.20
2017-07-23T15:41:58.319Z,35.10
2017-07-23T15:44:25.931Z,35.20
2017-07-23T15:46:53.497Z,34.90
2017-07-23T15:49:21.356Z,36.00
2017-07-23T15:51:48.949Z,35.90
2017-07-23T15:54:16.513Z,34.50
2017-07-23T15:56:44.110Z,35.50
2017-07-23T15:59:11.670Z,36.10
2017-07-23T16:01:40.385Z,35.00
2017-07-23T16:04:07.974Z,35.50
2017-07-23T16:06:35.565Z,35.30
2017-07-23T16:09:03.161Z,35.10
2017-07-23T16:11:30.738Z,36.30
2017-07-23T16:13:58.606Z,37.10
2017-07-23T16:16:26.171Z,36.20
2017-07-23T16:18:53.748Z,36.80
2017-07-23T16:21:21.370Z,36.70
2017-07-23T16:23:48.976Z,36.60
2017-07-23T16:26:16.938Z,36.50
2017-07-23T16:28:44.512Z,36.50
2017-07-23T16:31:12.099Z,36.50
2017-07-23T16:33:39.864Z,36.50
2017-07-23T16:36:07.450Z,36.40
2017-07-23T16:38:35.381Z,36.30
2017-07-23T16:41:02.952Z,36.30
2017-07-23T16:43:30.597Z,36.40
2017-07-23T16:45:58.199Z,36.70
2017-07-23T16:48:25.949Z,36.90
2017-07-23T16:50:53.914Z,37.80
2017-07-23T16:53:21.491Z,38.10
2017-07-23T16:55:49.183Z,38.10
2017-07-23T16:58:16.771Z,37.20
2017-07-23T17:00:44.330Z,38.40
2017-07-23T17:03:12.298Z,39.10
2017-07-23T17:05:39.939Z,40.00
2017-07-23T17:08:07.988Z,38.10
2017-07-23T17:10:35.674Z,38.50
2017-07-23T17:13:03.239Z,37.70
2017-07-23T17:15:31.742Z,38.20
2017-07-23T17:17:59.912Z,37.70
2017-07-23T17:20:27.612Z,37.60
2017-07-23T17:22:55.227Z,37.70
2017-07-23T17:25:22.808Z,37.80
2017-07-23T17:27:50.743Z,38.00
2017-07-23T17:30:18.322Z,38.20
2017-07-23T17:32:45.937Z,38.40
2017-07-23T17:35:13.533Z,38.40
2017-07-23T17:37:41.090Z,39.00
2017-07-23T17:40:08.989Z,38.60
2017-07-23T17:42:37.591Z,38.90
2017-07-23T17:45:05.185Z,39.20
2017-07-23T17:47:32.950Z,38.80
2017-07-23T17:50:00.532Z,38.50
2017-07-23T17:52:28.448Z,38.70
2017-07-23T17:54:56.025Z,38.40
2017-07-23T17:57:24.663Z,38.50
2017-07-23T17:59:52.309Z,39.30
2017-07-23T18:02:19.921Z,39.10
2017-07-23T18:04:47.896Z,38.90
2017-07-23T18:07:15.461Z,38.60
2017-07-23T18:09:43.057Z,39.20
2017-07-23T18:12:11.774Z,39.50
2017-07-23T18:14:39.384Z,40.00
2017-07-23T18:17:07.269Z,40.20
2017-07-23T18:19:36.520Z,41.20
2017-07-23T18:22:04.092Z,41.70
2017-07-23T18:24:32.294Z,41.10
2017-07-23T18:27:00.445Z,42.50
2017-07-23T18:29:28.364Z,43.10
2017-07-23T18:31:56.449Z,42.60
2017-07-23T18:34:24.057Z,42.90
2017-07-23T18:36:51.669Z,43.30
2017-07-23T18:39:20.008Z,43.90
2017-07-23T18:41:47.882Z,43.80
2017-07-23T18:44:19.891Z,44.30
2017-07-23T18:46:47.938Z,44.00
2017-07-23T18:49:15.957Z,44.60
2017-07-23T18:51:43.624Z,44.40
2017-07-23T18:54:14.537Z,44.70
2017-07-23T18:56:42.101Z,45.20
2017-07-23T18:59:10.110Z,45.40
2017-07-23T19:01:37.697Z,45.70
2017-07-23T19:04:07.045Z,46.10
2017-07-23T19:06:36.094Z,46.10
2017-07-23T19:09:04.588Z,45.70
2017-07-23T19:11:33.017Z,46.10
2017-07-23T19:14:02.211Z,46.70
2017-07-23T19:16:29.951Z,47.50
2017-07-23T19:19:00.911Z,47.40
2017-07-23T19:21:28.535Z,46.30
2017-07-23T19:23:56.153Z,46.90
2017-07-23T19:26:23.772Z,46.60
2017-07-23T19:28:51.371Z,46.60
2017-07-23T19:31:19.260Z,47.20
2017-07-23T19:33:47.621Z,47.10
2017-07-23T19:36:15.524Z,47.00
2017-07-23T19:38:43.963Z,47.00
2017-07-23T19:41:11.572Z,47.10
2017-07-23T19:43:40.424Z,47.00
2017-07-23T19:46:08.011Z,47.00
2017-07-23T19:48:35.857Z,46.90
2017-07-23T19:51:04.292Z,46.90
2017-07-23T19:53:31.905Z,46.80
2017-07-23T19:56:00.644Z,46.90
2017-07-23T19:58:28.349Z,46.80
2017-07-23T20:00:56.065Z,46.80
2017-07-23T20:03:23.696Z,46.80
2017-07-23T20:05:51.263Z,47.40
2017-07-23T20:08:19.599Z,47.50
2017-07-23T20:10:47.316Z,48.00
2017-07-23T20:13:14.960Z,47.50
2017-07-23T20:15:43.564Z,46.50
2017-07-23T20:18:11.126Z,47.10
2017-07-23T20:20:39.140Z,46.40
2017-07-23T20:23:06.780Z,47.60
2017-07-23T20:25:34.343Z,48.20
2017-07-23T20:28:01.976Z,47.60
2017-07-23T20:30:29.545Z,48.20
2017-07-23T20:32:57.584Z,48.50
2017-07-23T20:35:25.152Z,48.20
2017-07-23T20:37:55.805Z,47.80
2017-07-23T20:40:23.444Z,47.90
2017-07-23T20:42:52.458Z,48.60
2017-07-23T20:45:22.236Z,48.30
2017-07-23T20:47:50.811Z,47.80
2017-07-23T20:50:18.722Z,47.50
2017-07-23T20:52:47.164Z,47.40
2017-07-23T20:55:16.666Z,47.10
2017-07-23T20:57:44.567Z,46.10
2017-07-23T21:00:16.128Z,46.90
2017-07-23T21:02:44.827Z,46.80
2017-07-23T21:05:13.212Z,45.80
2017-07-23T21:07:40.781Z,45.60
2017-07-23T21:10:08.393Z,46.20
2017-07-23T21:12:36.064Z,46.60
2017-07-23T21:15:03.971Z,46.20
2017-07-23T21:17:31.588Z,47.20
2017-07-23T21:19:59.297Z,47.30
2017-07-23T21:22:27.064Z,47.20
2017-07-23T21:24:54.724Z,47.20
2017-07-23T21:27:23.767Z,47.00
2017-07-23T21:29:53.156Z,46.50
2017-07-23T21:32:20.739Z,46.50
2017-07-23T21:34:48.478Z,46.60
2017-07-23T21:37:16.036Z,46.50
2017-07-23T21:39:52.159Z,46.40
2017-07-23T21:42:20.542Z,46.00
2017-07-23T21:44:48.451Z,46.00
2017-07-23T21:47:17.534Z,45.70
2017-07-23T21:50:00.609Z,46.10
2017-07-23T21:52:32.917Z,46.00
2017-07-23T21:55:02.443Z,45.40
2017-07-23T21:57:34.702Z,45.50
2017-07-23T22:02:51.777Z,46.00
2017-07-23T22:05:21.407Z,45.50
2017-07-23T22:07:49.639Z,46.00
2017-07-23T22:10:47.798Z,45.90
2017-07-23T22:13:15.477Z,46.00
2017-07-23T22:15:46.617Z,46.10
2017-07-23T22:18:15.564Z,46.20
2017-07-23T22:20:43.478Z,46.20
2017-07-23T22:23:24.069Z,46.20
2017-07-23T22:25:51.636Z,46.20
2017-07-23T22:28:19.204Z,46.00
2017-07-23T22:33:25.613Z,46.80
2017-07-23T22:35:53.673Z,46.60
2017-07-23T22:38:22.848Z,47.00
2017-07-23T22:40:50.526Z,47.10
2017-07-23T22:43:29.804Z,47.50
2017-07-23T22:46:06.519Z,47.80
2017-07-23T22:48:35.344Z,48.30
2017-07-23T22:51:03.505Z,48.50
2017-07-23T22:53:31.080Z,48.80
2017-07-23T22:55:58.715Z,49.00
2017-07-23T22:58:27.671Z,49.30
2017-07-23T23:00:55.664Z,49.60
2017-07-23T23:03:24.179Z,49.80
2017-07-23T23:05:52.544Z,50.00
2017-07-23T23:08:20.149Z,50.00
2017-07-23T23:10:47.790Z,50.90
2017-07-23T23:13:15.754Z,51.20
2017-07-23T23:15:43.341Z,51.10
2017-07-23T23:18:10.898Z,51.30
2017-07-23T23:20:38.499Z,51.40
2017-07-23T23:23:06.048Z,51.40
2017-07-23T23:25:34.788Z,51.40
2017-07-23T23:28:02.355Z,51.20
2017-07-23T23:30:29.919Z,51.50
2017-07-23T23:32:57.555Z,51.70
2017-07-23T23:35:25.893Z,51.60
2017-07-23T23:37:53.784Z,51.40
2017-07-23T23:40:21.397Z,51.70
2017-07-23T23:42:49.482Z,51.50
2017-07-23T23:45:17.689Z,51.40
2017-07-23T23:47:45.250Z,51.10
2017-07-23T23:50:13.313Z,51.40
2017-07-23T23:52:41.239Z,51.10
2017-07-23T23:55:08.841Z,50.20
2017-07-23T23:57:36.468Z,50.10
